sensor_id;sensor_type;location;lat;lon;timestamp;pressure;altitude;pressure_sealevel;temperature;humidity
62038;BME280;47991;42.974;12.082;2023-03-18T22:19:57;98073.21;;;8.17;68.92
62038;BME280;47991;42.974;12.082;2023-03-18T22:22:29;98076.17;;;8.07;68.65
62038;BME280;47991;42.974;12.082;2023-03-18T22:24:57;98076.55;;;7.92;69.32
62038;BME280;47991;42.974;12.082;2023-03-18T22:27:26;98082.58;;;7.89;68.55
62038;BME280;47991;42.974;12.082;2023-03-18T22:29:57;98083.66;;;7.87;68.60
62038;BME280;47991;42.974;12.082;2023-03-18T22:32:40;98081.05;;;7.83;68.87
62038;BME280;47991;42.974;12.082;2023-03-18T22:35:14;98081.19;;;7.72;70.73
62038;BME280;47991;42.974;12.082;2023-03-18T22:37:44;98082.39;;;7.59;70.24
62038;BME280;47991;42.974;12.082;2023-03-18T22:40:21;98082.54;;;7.47;69.89
62038;BME280;47991;42.974;12.082;2023-03-18T22:42:52;98084.27;;;7.49;69.16
62038;BME280;47991;42.974;12.082;2023-03-18T22:45:40;98083.95;;;7.45;69.09
62038;BME280;47991;42.974;12.082;2023-03-18T22:48:14;98085.89;;;7.45;69.22
62038;BME280;47991;42.974;12.082;2023-03-18T22:50:44;98088.58;;;7.41;69.31
62038;BME280;47991;42.974;12.082;2023-03-18T22:53:18;98090.45;;;7.30;69.73
62038;BME280;47991;42.974;12.082;2023-03-18T22:55:46;98093.05;;;7.15;69.71
62038;BME280;47991;42.974;12.082;2023-03-18T22:58:22;98096.31;;;7.05;69.48
62038;BME280;47991;42.974;12.082;2023-03-18T23:00:53;98095.10;;;7.03;69.64
62038;BME280;47991;42.974;12.082;2023-03-18T23:03:26;98101.09;;;7.00;69.64
62038;BME280;47991;42.974;12.082;2023-03-18T23:05:55;98107.48;;;6.95;69.40
62038;BME280;47991;42.974;12.082;2023-03-18T23:08:23;98103.30;;;6.90;70.39
62038;BME280;47991;42.974;12.082;2023-03-18T23:10:57;98104.59;;;6.82;70.71
62038;BME280;47991;42.974;12.082;2023-03-18T23:13:39;98104.42;;;6.80;71.13
62038;BME280;47991;42.974;12.082;2023-03-18T23:16:19;98098.49;;;6.75;70.85
62038;BME280;47991;42.974;12.082;2023-03-18T23:18:49;98092.34;;;6.77;71.28
62038;BME280;47991;42.974;12.082;2023-03-18T23:21:18;98098.30;;;6.77;71.20
62038;BME280;47991;42.974;12.082;2023-03-18T23:23:49;98105.86;;;6.78;71.60
62038;BME280;47991;42.974;12.082;2023-03-18T23:26:17;98107.22;;;6.83;71.67
62038;BME280;47991;42.974;12.082;2023-03-18T23:28:46;98106.54;;;6.81;71.79
62038;BME280;47991;42.974;12.082;2023-03-18T23:31:14;98106.58;;;6.75;71.41
62038;BME280;47991;42.974;12.082;2023-03-18T23:33:46;98105.59;;;6.67;71.93
62038;BME280;47991;42.974;12.082;2023-03-18T23:36:18;98102.98;;;6.62;71.39
62038;BME280;47991;42.974;12.082;2023-03-18T23:38:45;98106.01;;;6.56;73.23
62038;BME280;47991;42.974;12.082;2023-03-18T23:41:12;98110.62;;;6.50;72.16
62038;BME280;47991;42.974;12.082;2023-03-18T23:43:42;98107.77;;;6.55;71.52
62038;BME280;47991;42.974;12.082;2023-03-18T23:46:13;98101.45;;;6.57;71.98
62038;BME280;47991;42.974;12.082;2023-03-18T23:48:40;98101.25;;;6.59;72.67
62038;BME280;47991;42.974;12.082;2023-03-18T23:51:07;98097.86;;;6.65;73.85
62038;BME280;47991;42.974;12.082;2023-03-18T23:53:33;98094.98;;;6.74;73.03
62038;BME280;47991;42.974;12.082;2023-03-18T23:56:00;98093.52;;;6.83;72.47
62038;BME280;47991;42.974;12.082;2023-03-18T23:58:27;98094.48;;;6.93;72.43
